Wiesbaden Army Airfield ETOU

Flugplatz Daten

Name: Wiesbaden Army Airfield

Ident: ETOU

Lat: 50,04980087

Long: 8,325400352

Platzhöhe: 461 ft

IataCode: WIE

City: Wiesbaden

Metar

2022/08/14 05:56
ETOU 140556Z AUTO 08006KT 9999 CLR 22/15 A2985 RMK AO2 SLP103 T02200146 10233 20205 57006

Taf

2022/08/14 04:19
TAF ETOU 140400Z 1404/1510 06009KT 9999 FEW080 QNH2986INS
BECMG 1417/1418 08006KT 9999 FEW030 SCT050 QNH2972INS
TEMPO 1500/1504 8000 BR
BECMG 1508/1509 23010KT 9000 -SHRA FEW020 BKN030 QNH2968INS TX31/1414Z TN17/1504Z
Gewünschte Webcam nicht vorhanden? Dann fügen Sie eine hinzu. Sie wird dann so schnell wie möglich freigeschaltet
Url: Title: